createdAt,value
2019-04-14T00:02:03.098Z,40.43
2019-04-14T00:04:37.832Z,42.03
2019-04-14T00:07:05.880Z,40.20
2019-04-14T00:09:33.730Z,38.77
2019-04-14T00:12:04.337Z,39.00
2019-04-14T00:14:31.405Z,39.97
2019-04-14T00:16:59.632Z,37.50
2019-04-14T00:19:28.341Z,40.27
2019-04-14T00:22:00.849Z,38.50
2019-04-14T00:24:29.097Z,40.77
2019-04-14T00:26:57.327Z,39.80
2019-04-14T00:29:24.679Z,38.00
2019-04-14T00:31:53.714Z,40.57
2019-04-14T00:34:35.317Z,39.63
2019-04-14T00:37:40.475Z,40.17
2019-04-14T00:40:10.576Z,38.53
2019-04-14T00:42:47.362Z,39.80
2019-04-14T00:45:31.938Z,40.70
2019-04-14T00:48:01.125Z,39.03
2019-04-14T00:50:23.319Z,39.90
2019-04-14T00:52:50.586Z,39.87
2019-04-14T00:55:18.336Z,39.47
2019-04-14T00:57:46.327Z,37.97
2019-04-14T01:00:17.308Z,39.10
2019-04-14T01:02:46.966Z,39.53
2019-04-14T01:05:15.257Z,37.97
2019-04-14T01:07:43.419Z,38.07
2019-04-14T01:10:10.829Z,37.70
2019-04-14T01:12:38.787Z,39.07
2019-04-14T01:15:07.177Z,36.40
2019-04-14T01:17:35.256Z,39.37
2019-04-14T01:20:03.613Z,40.60
2019-04-14T01:22:31.465Z,40.30
2019-04-14T01:24:59.929Z,41.40
2019-04-14T01:27:27.817Z,43.43
2019-04-14T01:29:55.912Z,43.23
2019-04-14T01:32:24.091Z,39.37
2019-04-14T01:34:53.658Z,40.87
2019-04-14T01:37:20.686Z,42.10
2019-04-14T01:39:48.367Z,40.70
2019-04-14T01:42:15.943Z,40.37
2019-04-14T01:44:43.817Z,43.07
2019-04-14T01:47:11.681Z,41.13
2019-04-14T01:49:39.716Z,41.93
2019-04-14T01:52:34.190Z,43.10
2019-04-14T01:55:13.269Z,43.70
2019-04-14T01:58:01.045Z,42.70
2019-04-14T02:01:04.122Z,44.83
2019-04-14T02:03:32.277Z,46.13
2019-04-14T02:06:00.369Z,43.17
2019-04-14T02:08:28.421Z,46.63
2019-04-14T02:10:56.546Z,46.73
2019-04-14T02:13:24.718Z,46.93
2019-04-14T02:15:52.821Z,49.67
2019-04-14T02:18:20.944Z,51.20
2019-04-14T02:20:49.056Z,51.77
2019-04-14T02:23:17.130Z,52.03
2019-04-14T02:25:45.031Z,50.83
2019-04-14T02:28:13.410Z,51.30
2019-04-14T02:30:49.843Z,49.67
2019-04-14T02:33:40.309Z,52.20
2019-04-14T02:36:14.794Z,50.33
2019-04-14T02:38:45.268Z,49.80
2019-04-14T02:43:44.983Z,50.00
2019-04-14T02:48:47.932Z,48.40
2019-04-14T02:51:04.238Z,50.40
2019-04-14T02:53:34.377Z,51.43
2019-04-14T02:58:42.054Z,56.63
2019-04-14T03:01:11.847Z,50.37
2019-04-14T03:06:01.265Z,50.80
2019-04-14T03:08:25.743Z,49.03
2019-04-14T03:10:55.827Z,51.77
2019-04-14T03:15:58.904Z,48.37
2019-04-14T03:18:47.179Z,47.47
2019-04-14T03:21:30.279Z,50.23
2019-04-14T03:24:13.121Z,49.10
2019-04-14T03:26:54.492Z,50.27
2019-04-14T03:29:32.577Z,48.97
2019-04-14T03:39:27.483Z,50.80
2019-04-14T03:41:57.709Z,50.40
2019-04-14T03:46:52.249Z,51.33
2019-04-14T03:49:26.444Z,48.73
2019-04-14T03:54:12.358Z,48.53
2019-04-14T03:56:51.238Z,46.97
2019-04-14T03:59:19.617Z,50.07
2019-04-14T04:01:47.881Z,48.83
2019-04-14T04:04:16.148Z,50.63
2019-04-14T04:06:44.253Z,50.03
2019-04-14T04:09:12.585Z,49.67
2019-04-14T04:11:41.189Z,50.60
2019-04-14T04:14:09.649Z,50.37
2019-04-14T04:16:55.429Z,50.13
2019-04-14T04:19:40.535Z,48.47
2019-04-14T04:22:23.687Z,47.70
2019-04-14T04:24:56.530Z,49.13
2019-04-14T04:27:44.030Z,49.50
2019-04-14T04:30:16.517Z,48.03
2019-04-14T04:32:49.645Z,48.40
2019-04-14T04:35:24.199Z,45.57
2019-04-14T04:38:07.254Z,48.50
2019-04-14T04:40:35.383Z,48.47
2019-04-14T04:43:03.724Z,46.57
2019-04-14T04:45:32.046Z,48.93
2019-04-14T04:48:00.221Z,47.03
2019-04-14T04:50:28.261Z,45.80
2019-04-14T04:52:56.193Z,47.37
2019-04-14T04:55:24.198Z,44.73
2019-04-14T04:57:52.397Z,44.37
2019-04-14T05:00:20.037Z,44.23
2019-04-14T05:02:48.250Z,44.43
2019-04-14T05:05:53.571Z,43.07
2019-04-14T05:08:21.690Z,43.47
2019-04-14T05:10:54.751Z,41.77
2019-04-14T05:13:27.021Z,44.23
2019-04-14T05:15:57.503Z,44.23
2019-04-14T05:18:26.799Z,43.07
2019-04-14T05:20:55.395Z,41.47
2019-04-14T05:23:23.448Z,41.53
2019-04-14T05:25:51.719Z,41.60
2019-04-14T05:28:19.914Z,41.73
2019-04-14T05:30:48.278Z,41.73
2019-04-14T05:33:16.261Z,41.33
2019-04-14T05:35:44.538Z,42.37
2019-04-14T05:38:12.659Z,41.67
2019-04-14T05:40:40.815Z,40.13
2019-04-14T05:43:08.855Z,40.67
2019-04-14T05:45:37.310Z,39.00
2019-04-14T05:48:05.365Z,40.17
2019-04-14T05:50:33.506Z,37.57
2019-04-14T05:53:02.159Z,38.83
2019-04-14T05:55:30.591Z,37.47
2019-04-14T05:57:59.098Z,36.47
2019-04-14T06:00:27.784Z,39.17
2019-04-14T06:02:55.268Z,36.43
2019-04-14T06:05:23.273Z,36.63
2019-04-14T06:07:50.558Z,37.63
2019-04-14T06:10:17.844Z,35.33
2019-04-14T06:12:45.096Z,38.47
2019-04-14T06:15:12.435Z,39.37
2019-04-14T06:17:39.672Z,36.50
2019-04-14T06:20:08.227Z,37.90
2019-04-14T06:22:36.476Z,37.90
2019-04-14T06:25:06.232Z,39.20
2019-04-14T06:27:34.738Z,37.07
2019-04-14T06:30:20.120Z,37.13
2019-04-14T06:32:47.688Z,37.70
2019-04-14T06:35:28.472Z,38.40
2019-04-14T06:38:01.738Z,33.70
2019-04-14T06:40:35.526Z,37.50
2019-04-14T06:43:02.760Z,34.77
2019-04-14T06:45:30.134Z,35.90
2019-04-14T06:47:57.391Z,35.03
2019-04-14T06:50:24.659Z,32.27
2019-04-14T06:52:51.905Z,34.93
2019-04-14T06:55:19.147Z,35.67
2019-04-14T06:57:46.395Z,32.57
2019-04-14T07:00:13.647Z,32.73
2019-04-14T07:02:40.879Z,33.63
2019-04-14T07:05:08.110Z,30.93
2019-04-14T07:07:35.453Z,31.67
2019-04-14T07:10:02.954Z,32.83
2019-04-14T07:12:30.223Z,31.57
2019-04-14T07:15:03.953Z,32.27
2019-04-14T07:17:31.181Z,31.50
2019-04-14T07:20:02.130Z,31.20
2019-04-14T07:22:27.608Z,28.83
2019-04-14T07:24:54.856Z,30.57
2019-04-14T07:27:22.107Z,27.73
2019-04-14T07:29:55.769Z,27.20
2019-04-14T07:32:48.311Z,27.43
2019-04-14T07:35:40.984Z,27.67
2019-04-14T07:38:13.427Z,27.77
2019-04-14T07:41:03.039Z,26.03
2019-04-14T07:43:50.863Z,25.00
2019-04-14T07:46:37.548Z,25.00
2019-04-14T07:49:22.720Z,24.30
2019-04-14T07:52:08.351Z,23.47
2019-04-14T07:54:51.447Z,23.07
2019-04-14T07:57:31.259Z,23.30
2019-04-14T08:00:10.937Z,22.83
2019-04-14T08:02:54.468Z,23.03
2019-04-14T08:05:28.200Z,21.67
2019-04-14T08:07:56.945Z,21.97
2019-04-14T08:10:24.194Z,22.53
2019-04-14T08:12:51.720Z,21.97
2019-04-14T08:15:18.993Z,20.13
2019-04-14T08:17:46.408Z,21.30
2019-04-14T08:20:26.398Z,21.70
2019-04-14T08:22:43.427Z,20.40
2019-04-14T08:25:11.008Z,20.90
2019-04-14T08:27:38.342Z,20.37
2019-04-14T08:30:06.155Z,20.13
2019-04-14T08:32:33.423Z,20.20
2019-04-14T08:35:00.769Z,20.43
2019-04-14T08:37:28.135Z,20.53
2019-04-14T08:39:55.404Z,19.63
2019-04-14T08:42:41.038Z,18.90
2019-04-14T08:45:29.276Z,18.40
2019-04-14T08:48:13.312Z,19.97
2019-04-14T08:51:03.304Z,19.73
2019-04-14T08:53:41.816Z,19.77
2019-04-14T08:56:27.378Z,20.23
2019-04-14T08:59:16.641Z,20.00
2019-04-14T09:01:59.299Z,20.63
2019-04-14T09:04:38.861Z,19.40
2019-04-14T09:07:14.196Z,19.07
2019-04-14T09:09:47.358Z,19.13
2019-04-14T09:12:16.983Z,18.57
2019-04-14T09:14:56.154Z,17.87
2019-04-14T09:17:13.432Z,17.97
2019-04-14T09:19:40.728Z,18.13
2019-04-14T09:22:07.958Z,18.60
2019-04-14T09:24:35.203Z,17.53
2019-04-14T09:27:02.431Z,18.10
2019-04-14T09:29:29.686Z,16.60
2019-04-14T09:31:56.952Z,18.10
2019-04-14T09:34:24.220Z,16.60
2019-04-14T09:36:51.456Z,17.03
2019-04-14T09:39:18.790Z,16.87
2019-04-14T09:41:46.036Z,16.10
2019-04-14T09:44:13.297Z,16.77
2019-04-14T09:46:40.587Z,16.57
2019-04-14T09:49:07.922Z,16.50
2019-04-14T09:51:35.194Z,18.87
2019-04-14T09:54:02.571Z,16.67
2019-04-14T09:56:29.822Z,16.13
2019-04-14T09:58:57.064Z,17.23
2019-04-14T10:01:24.440Z,16.90
2019-04-14T10:03:53.431Z,16.43
2019-04-14T10:06:20.980Z,17.17
2019-04-14T10:08:48.211Z,17.00
2019-04-14T10:11:15.471Z,17.30
2019-04-14T10:13:42.693Z,16.80
2019-04-14T10:16:10.020Z,15.73
2019-04-14T10:18:37.499Z,15.57
2019-04-14T10:21:16.525Z,15.30
2019-04-14T10:23:33.897Z,15.40
2019-04-14T10:26:01.160Z,16.50
2019-04-14T10:28:28.429Z,16.33
2019-04-14T10:30:55.859Z,15.70
2019-04-14T10:33:23.113Z,16.10
2019-04-14T10:35:50.527Z,15.63
2019-04-14T10:38:18.040Z,15.00
2019-04-14T10:40:45.648Z,15.18
2019-04-14T10:43:12.986Z,14.95
2019-04-14T10:45:40.404Z,15.43
2019-04-14T10:48:07.713Z,14.55
2019-04-14T10:50:34.965Z,14.40
2019-04-14T10:53:02.278Z,15.05
2019-04-14T10:55:29.657Z,14.28
2019-04-14T10:57:56.944Z,15.15
2019-04-14T11:00:24.385Z,14.03
2019-04-14T11:02:51.692Z,13.78
2019-04-14T11:05:19.044Z,13.65
2019-04-14T11:07:46.992Z,15.08
2019-04-14T11:10:14.373Z,16.27
2019-04-14T11:12:41.690Z,14.78
2019-04-14T11:15:09.670Z,15.63
2019-04-14T11:17:36.947Z,14.85
2019-04-14T11:20:05.011Z,14.30
2019-04-14T11:22:34.666Z,15.35
2019-04-14T11:25:03.320Z,15.93
2019-04-14T11:27:33.280Z,16.02
2019-04-14T11:30:00.883Z,13.80
2019-04-14T11:32:52.600Z,14.53
2019-04-14T11:35:42.464Z,13.53
2019-04-14T11:38:16.151Z,13.68
2019-04-14T11:40:50.149Z,14.00
2019-04-14T11:43:18.231Z,14.85
2019-04-14T11:45:48.849Z,13.62
2019-04-14T11:48:17.673Z,12.75
2019-04-14T11:50:45.582Z,12.28
2019-04-14T11:53:14.444Z,12.85
2019-04-14T11:55:42.170Z,13.43
2019-04-14T11:58:10.604Z,13.90
2019-04-14T12:00:56.860Z,12.68
2019-04-14T12:03:56.275Z,13.98
2019-04-14T12:06:43.089Z,14.45
2019-04-14T12:09:22.364Z,13.43
2019-04-14T12:11:49.973Z,13.75
2019-04-14T12:14:17.696Z,13.30
2019-04-14T12:16:45.371Z,12.45
2019-04-14T12:19:12.981Z,15.50
2019-04-14T12:21:43.498Z,15.48
2019-04-14T12:24:11.423Z,13.83
2019-04-14T12:26:38.916Z,14.43
2019-04-14T12:29:06.763Z,13.53
2019-04-14T12:31:35.321Z,12.82
2019-04-14T12:34:02.876Z,11.73
2019-04-14T12:36:31.729Z,13.48
2019-04-14T12:39:01.147Z,14.73
2019-04-14T12:41:40.668Z,13.78
2019-04-14T12:44:26.825Z,12.23
2019-04-14T12:47:08.759Z,11.78
2019-04-14T12:49:42.736Z,12.75
2019-04-14T12:52:21.367Z,11.50
2019-04-14T12:54:47.453Z,11.68
2019-04-14T12:57:17.160Z,13.48
2019-04-14T12:59:44.796Z,12.53
2019-04-14T13:02:40.946Z,11.45
2019-04-14T13:05:08.790Z,13.88
2019-04-14T13:07:36.934Z,13.00
2019-04-14T13:10:06.293Z,12.10
2019-04-14T13:12:33.989Z,13.22
2019-04-14T13:15:02.941Z,13.25
2019-04-14T13:17:30.791Z,13.78
2019-04-14T13:19:58.443Z,13.70
2019-04-14T13:22:33.750Z,13.68
2019-04-14T13:24:56.387Z,13.10
2019-04-14T13:27:25.187Z,13.25
2019-04-14T13:29:53.223Z,12.95
2019-04-14T13:32:21.389Z,12.80
2019-04-14T13:34:51.089Z,13.83
2019-04-14T13:37:19.047Z,14.68
2019-04-14T13:39:46.630Z,15.20
2019-04-14T13:42:14.746Z,15.18
2019-04-14T13:44:42.624Z,13.95
2019-04-14T13:47:10.159Z,12.53
2019-04-14T13:49:37.871Z,13.75
2019-04-14T13:52:05.475Z,13.72
2019-04-14T13:54:33.622Z,12.78
2019-04-14T13:57:01.075Z,12.78
2019-04-14T13:59:28.996Z,12.47
2019-04-14T14:01:57.727Z,12.50
2019-04-14T14:04:25.477Z,13.53
2019-04-14T14:06:53.161Z,14.68
2019-04-14T14:09:23.210Z,13.88
2019-04-14T14:12:08.926Z,13.88
2019-04-14T14:15:03.150Z,12.70
2019-04-14T14:17:53.316Z,12.88
2019-04-14T14:20:30.767Z,13.40
2019-04-14T14:23:33.025Z,12.95
2019-04-14T14:26:04.659Z,12.90
2019-04-14T14:28:32.635Z,11.85
2019-04-14T14:31:00.909Z,11.63
2019-04-14T14:33:28.956Z,11.93
2019-04-14T14:35:57.620Z,12.88
2019-04-14T14:38:26.902Z,13.13
2019-04-14T14:40:56.791Z,12.78
2019-04-14T14:43:24.397Z,11.90
2019-04-14T14:46:01.506Z,11.70
2019-04-14T14:48:34.923Z,11.40
2019-04-14T14:51:13.848Z,11.48
2019-04-14T14:53:42.659Z,10.17
2019-04-14T14:56:13.868Z,11.00
2019-04-14T14:58:42.125Z,10.93
2019-04-14T15:01:12.372Z,11.00
2019-04-14T15:03:42.598Z,11.53
2019-04-14T15:06:11.745Z,9.20
2019-04-14T15:08:41.461Z,9.70
2019-04-14T15:11:09.186Z,9.40
2019-04-14T15:13:37.320Z,8.90
2019-04-14T15:16:05.184Z,9.53
2019-04-14T15:18:32.992Z,9.90
2019-04-14T15:21:00.737Z,9.33
2019-04-14T15:23:28.255Z,9.10
2019-04-14T15:25:55.631Z,9.73
2019-04-14T15:28:23.014Z,9.27
2019-04-14T15:30:53.833Z,9.10
2019-04-14T15:33:21.454Z,10.00
2019-04-14T15:35:49.149Z,9.27
2019-04-14T15:38:16.591Z,8.73
2019-04-14T15:40:44.064Z,8.70
2019-04-14T15:43:12.320Z,9.67
2019-04-14T15:45:39.889Z,9.73
2019-04-14T15:48:07.248Z,9.63
2019-04-14T15:50:34.838Z,9.37
2019-04-14T15:53:02.139Z,8.80
2019-04-14T15:55:29.613Z,8.73
2019-04-14T15:58:02.988Z,8.67
2019-04-14T16:00:55.875Z,8.60
2019-04-14T16:03:34.532Z,10.13
2019-04-14T16:06:14.215Z,8.93
2019-04-14T16:08:57.405Z,10.23
2019-04-14T16:11:47.377Z,9.87
2019-04-14T16:14:34.347Z,9.47
2019-04-14T16:17:21.773Z,8.33
2019-04-14T16:19:54.104Z,9.70
2019-04-14T16:22:21.476Z,9.47
2019-04-14T16:24:48.868Z,9.67
2019-04-14T16:27:34.555Z,10.40
2019-04-14T16:30:20.384Z,11.23
2019-04-14T16:33:09.786Z,10.40
2019-04-14T16:35:37.771Z,10.97
2019-04-14T16:38:05.304Z,10.27
2019-04-14T16:40:32.962Z,10.50
2019-04-14T16:43:00.732Z,10.23
2019-04-14T16:45:28.648Z,10.77
2019-04-14T16:47:55.979Z,10.60
2019-04-14T16:50:23.357Z,10.97
2019-04-14T16:52:55.912Z,9.80
2019-04-14T16:55:48.941Z,9.00
2019-04-14T16:58:35.864Z,10.10
2019-04-14T17:01:17.886Z,9.47
2019-04-14T17:03:45.128Z,9.57
2019-04-14T17:06:12.561Z,10.03
2019-04-14T17:08:40.118Z,9.73
2019-04-14T17:11:07.695Z,11.77
2019-04-14T17:13:38.353Z,11.10
2019-04-14T17:16:25.280Z,9.80
2019-04-14T17:19:07.665Z,9.13
2019-04-14T17:21:41.316Z,10.07
2019-04-14T17:24:29.200Z,10.03
2019-04-14T17:27:09.043Z,9.33
2019-04-14T17:30:04.945Z,9.67
2019-04-14T17:32:50.304Z,9.37
2019-04-14T17:35:29.960Z,10.07
2019-04-14T17:38:16.801Z,9.53
2019-04-14T17:41:02.572Z,9.67
2019-04-14T17:43:32.784Z,10.03
2019-04-14T17:46:26.467Z,10.30
2019-04-14T17:49:15.999Z,9.60
2019-04-14T17:51:49.999Z,10.17
2019-04-14T17:54:52.253Z,9.57
2019-04-14T17:57:43.860Z,8.90
2019-04-14T18:00:42.685Z,8.97
2019-04-14T18:03:32.408Z,9.43
2019-04-14T18:06:18.585Z,8.70
2019-04-14T18:09:05.445Z,9.13
2019-04-14T18:11:55.028Z,8.90
2019-04-14T18:14:31.800Z,9.63
2019-04-14T18:17:24.476Z,7.40
2019-04-14T18:19:55.796Z,8.80
2019-04-14T18:22:23.082Z,7.70
2019-04-14T18:24:50.330Z,7.97
2019-04-14T18:27:18.338Z,9.33
2019-04-14T18:30:02.174Z,8.03
2019-04-14T18:32:51.145Z,9.83
2019-04-14T18:35:25.147Z,8.40
2019-04-14T18:38:21.407Z,8.50
2019-04-14T18:41:04.833Z,8.20
2019-04-14T18:43:39.172Z,8.40
2019-04-14T18:46:10.820Z,8.67
2019-04-14T18:48:43.711Z,8.23
2019-04-14T18:51:31.180Z,8.30
2019-04-14T18:54:06.336Z,10.37
2019-04-14T18:56:59.341Z,7.87
2019-04-14T18:59:41.960Z,7.10
2019-04-14T19:02:11.241Z,8.73
2019-04-14T19:04:39.293Z,8.30
2019-04-14T19:07:07.256Z,8.30
2019-04-14T19:09:34.488Z,8.60
2019-04-14T19:12:20.016Z,7.53
2019-04-14T19:14:48.809Z,7.80
2019-04-14T19:17:38.345Z,7.77
2019-04-14T19:20:06.061Z,8.90
2019-04-14T19:22:33.509Z,8.37
2019-04-14T19:25:08.072Z,8.20
2019-04-14T19:27:30.135Z,8.13
2019-04-14T19:29:57.635Z,7.50
2019-04-14T19:32:25.139Z,7.73
2019-04-14T19:34:52.445Z,7.30
2019-04-14T19:37:19.837Z,6.40
2019-04-14T19:39:47.220Z,6.63
2019-04-14T19:42:14.572Z,6.03
2019-04-14T19:44:41.861Z,5.77
2019-04-14T19:47:09.145Z,5.70
2019-04-14T19:49:36.455Z,5.73
2019-04-14T19:52:03.871Z,5.73
2019-04-14T19:54:31.242Z,5.37
2019-04-14T19:56:58.561Z,4.77
2019-04-14T19:59:26.166Z,4.57
2019-04-14T20:01:53.750Z,5.03
2019-04-14T20:04:21.132Z,4.50
2019-04-14T20:06:48.495Z,4.30
2019-04-14T20:09:15.910Z,5.07
2019-04-14T20:11:43.235Z,5.60
2019-04-14T20:14:10.678Z,4.60
2019-04-14T20:16:50.644Z,4.63
2019-04-14T20:19:35.955Z,4.23
2019-04-14T20:22:15.178Z,4.40
2019-04-14T20:25:02.104Z,4.33
2019-04-14T20:27:54.763Z,4.23
2019-04-14T20:30:35.396Z,4.53
2019-04-14T20:33:02.839Z,3.80
2019-04-14T20:35:30.365Z,4.33
2019-04-14T20:37:57.975Z,3.83
2019-04-14T20:40:25.245Z,3.97
2019-04-14T20:42:52.841Z,3.87
2019-04-14T20:45:20.254Z,3.80
2019-04-14T20:47:47.667Z,4.60
2019-04-14T20:50:15.248Z,4.30
2019-04-14T20:52:42.772Z,4.10
2019-04-14T20:55:10.279Z,4.50
2019-04-14T20:57:37.699Z,4.70
2019-04-14T21:00:06.337Z,5.00
2019-04-14T21:02:51.427Z,4.53
2019-04-14T21:05:44.272Z,5.83
2019-04-14T21:08:29.891Z,6.43
2019-04-14T21:11:12.530Z,5.50
2019-04-14T21:13:47.409Z,4.87
2019-04-14T21:16:40.706Z,5.40
2019-04-14T21:19:27.756Z,5.10
2019-04-14T21:22:17.160Z,4.40
2019-04-14T21:24:52.721Z,5.00
2019-04-14T21:27:54.662Z,5.80
2019-04-14T21:30:47.321Z,5.80
2019-04-14T21:33:32.746Z,5.17
2019-04-14T21:36:09.595Z,4.93
2019-04-14T21:38:59.403Z,4.77
2019-04-14T21:41:28.276Z,5.43
2019-04-14T21:43:55.525Z,5.40
2019-04-14T21:46:22.770Z,4.90
2019-04-14T21:48:50.007Z,4.77
2019-04-14T21:51:17.276Z,5.77
2019-04-14T21:53:45.538Z,5.50
2019-04-14T21:56:21.603Z,5.93
2019-04-14T21:59:00.969Z,5.63
2019-04-14T22:01:53.691Z,5.77
2019-04-14T22:04:50.265Z,5.70
2019-04-14T22:07:25.768Z,6.00
2019-04-14T22:09:56.031Z,6.33
2019-04-14T22:12:23.385Z,5.47
2019-04-14T22:14:50.779Z,6.33
2019-04-14T22:17:18.008Z,5.40
2019-04-14T22:19:45.363Z,6.30
2019-04-14T22:22:12.736Z,6.67
2019-04-14T22:24:40.002Z,6.40
2019-04-14T22:27:07.250Z,7.17
2019-04-14T22:29:34.603Z,6.77
2019-04-14T22:32:01.861Z,6.83
2019-04-14T22:34:29.099Z,6.57
2019-04-14T22:36:56.426Z,7.10
2019-04-14T22:39:23.659Z,7.07
2019-04-14T22:41:50.921Z,6.87
2019-04-14T22:44:18.274Z,6.23
2019-04-14T22:46:45.591Z,6.20
2019-04-14T22:49:16.999Z,7.43
2019-04-14T22:51:44.238Z,7.17
2019-04-14T22:54:11.491Z,7.07
2019-04-14T22:56:39.773Z,7.10
2019-04-14T22:59:07.332Z,7.23
2019-04-14T23:01:36.399Z,7.63
2019-04-14T23:04:11.773Z,7.70
2019-04-14T23:06:57.542Z,7.77
2019-04-14T23:09:35.821Z,7.23
2019-04-14T23:12:40.719Z,7.70
2019-04-14T23:15:24.044Z,7.63
2019-04-14T23:18:16.808Z,7.37
2019-04-14T23:21:02.367Z,7.50
2019-04-14T23:23:38.442Z,7.53
2019-04-14T23:26:05.679Z,6.63
2019-04-14T23:28:32.919Z,7.93
2019-04-14T23:31:01.732Z,7.40
2019-04-14T23:33:29.275Z,8.13
2019-04-14T23:36:02.407Z,8.10
2019-04-14T23:38:29.675Z,7.97
2019-04-14T23:40:56.990Z,8.23
2019-04-14T23:43:24.266Z,7.77
2019-04-14T23:45:51.492Z,7.43
2019-04-14T23:48:18.979Z,7.87
2019-04-14T23:50:46.231Z,8.73
2019-04-14T23:53:13.474Z,8.47
2019-04-14T23:55:40.859Z,8.80
2019-04-14T23:58:08.138Z,8.63
